首页
METAR-TAF:

METAR-TAF

机场 :

凯奇凯梅特, 匈牙利

纬度: 46-55N, 经度: 019-45E, 海拔: 113米

当前天气观测

该预报发布于42分钟前的13:15 UTC
风速8节,风向东转东北
温度 2°C
湿度 80%
气压 1011 hPa
能見度: 8000

METAR: LHKE 031315Z 07008KT 8000 NSC 02/M01 Q1011 RERA R12/190095 NOSIG RMK BLU

时间: 14:57 (13:57 UTC)

预报

该预报发布于2小时和42分钟前的11:15 UTC
预报有效从03日的 12点(UTC)到 03日的 21点(UTC)
风速8节,风向
能見度: 8000
短暂存在
从 03日的 12点(UTC)到 03日的 18点(UTC)
散云层高于2500英尺
多云层高于6000英尺
阴天层高于8300英尺
小雨
短暂存在
从 03日的 18点(UTC)到 03日的 21点(UTC)
能見度: 5000
散云层高于1000英尺
多云层高于8300英尺
轻雾

TAF: LHKE 031115Z 0312/0321 09008KT 8000 NSC TEMPO 0312/0318 -RA SCT025 BKN060 OVC083 TEMPO 0318/0321 5000 BR SCT010 BKN083

超过4000个机场的气象观测和天气预报(METAR&TAF报告)。

可查询的气象台以黄色和红色小点在地图上表示。

将鼠标移到小点上方,可查看气象台名称。

然后点击查看天气观测和预报。

如需切换地图:点击带黑十字的绿色按钮放大地图;点击带横线的绿色按钮缩小地图;或者点击绿色箭头查看邻近地区的地图。


METAR-TAF: